sensor_id;sensor_type;location;lat;lon;timestamp;P1;durP1;ratioP1;P2;durP2;ratioP2
78871;SDS011;68247;43.514;1.502;2023-10-31T00:00:36;4.00;;;2.10;;
78871;SDS011;68247;43.514;1.502;2023-10-31T00:03:02;6.37;;;2.17;;
78871;SDS011;68247;43.514;1.502;2023-10-31T00:05:27;7.57;;;2.70;;
78871;SDS011;68247;43.514;1.502;2023-10-31T00:07:53;4.85;;;2.45;;
78871;SDS011;68247;43.514;1.502;2023-10-31T00:10:18;4.97;;;2.30;;
78871;SDS011;68247;43.514;1.502;2023-10-31T00:12:44;6.20;;;2.80;;
78871;SDS011;68247;43.514;1.502;2023-10-31T00:15:09;5.43;;;2.58;;
78871;SDS011;68247;43.514;1.502;2023-10-31T00:17:35;5.77;;;2.90;;
78871;SDS011;68247;43.514;1.502;2023-10-31T00:20:00;6.23;;;3.23;;
78871;SDS011;68247;43.514;1.502;2023-10-31T00:22:26;5.72;;;3.30;;
78871;SDS011;68247;43.514;1.502;2023-10-31T00:24:51;5.93;;;3.60;;
78871;SDS011;68247;43.514;1.502;2023-10-31T00:27:16;7.17;;;3.77;;
78871;SDS011;68247;43.514;1.502;2023-10-31T00:29:42;7.53;;;3.80;;
78871;SDS011;68247;43.514;1.502;2023-10-31T00:32:07;7.80;;;4.15;;
78871;SDS011;68247;43.514;1.502;2023-10-31T00:34:33;7.90;;;3.70;;
78871;SDS011;68247;43.514;1.502;2023-10-31T00:36:58;8.17;;;3.97;;
78871;SDS011;68247;43.514;1.502;2023-10-31T00:39:24;7.10;;;3.97;;
78871;SDS011;68247;43.514;1.502;2023-10-31T00:41:49;9.27;;;4.90;;
78871;SDS011;68247;43.514;1.502;2023-10-31T00:44:14;7.68;;;4.05;;
78871;SDS011;68247;43.514;1.502;2023-10-31T00:46:40;7.80;;;4.60;;
78871;SDS011;68247;43.514;1.502;2023-10-31T00:49:05;6.87;;;4.23;;
78871;SDS011;68247;43.514;1.502;2023-10-31T00:51:31;8.60;;;4.30;;
78871;SDS011;68247;43.514;1.502;2023-10-31T00:53:57;12.73;;;4.10;;
78871;SDS011;68247;43.514;1.502;2023-10-31T00:56:22;7.43;;;4.37;;
78871;SDS011;68247;43.514;1.502;2023-10-31T00:58:47;7.78;;;4.57;;
78871;SDS011;68247;43.514;1.502;2023-10-31T01:01:14;8.17;;;4.30;;
78871;SDS011;68247;43.514;1.502;2023-10-31T01:03:39;9.20;;;4.50;;
78871;SDS011;68247;43.514;1.502;2023-10-31T01:06:05;6.83;;;4.00;;
78871;SDS011;68247;43.514;1.502;2023-10-31T01:08:30;9.37;;;4.10;;
78871;SDS011;68247;43.514;1.502;2023-10-31T01:10:56;8.15;;;4.63;;
78871;SDS011;68247;43.514;1.502;2023-10-31T01:13:21;8.20;;;3.57;;
78871;SDS011;68247;43.514;1.502;2023-10-31T01:15:47;8.23;;;3.57;;
78871;SDS011;68247;43.514;1.502;2023-10-31T01:18:12;8.37;;;3.27;;
78871;SDS011;68247;43.514;1.502;2023-10-31T01:20:38;6.60;;;3.35;;
78871;SDS011;68247;43.514;1.502;2023-10-31T01:23:03;7.17;;;3.37;;
78871;SDS011;68247;43.514;1.502;2023-10-31T01:25:29;6.10;;;3.57;;
78871;SDS011;68247;43.514;1.502;2023-10-31T01:27:54;6.57;;;3.13;;
78871;SDS011;68247;43.514;1.502;2023-10-31T01:30:20;6.93;;;3.50;;
78871;SDS011;68247;43.514;1.502;2023-10-31T01:32:47;7.97;;;3.67;;
78871;SDS011;68247;43.514;1.502;2023-10-31T01:35:13;6.93;;;3.43;;
78871;SDS011;68247;43.514;1.502;2023-10-31T01:37:38;7.60;;;3.67;;
78871;SDS011;68247;43.514;1.502;2023-10-31T01:40:04;5.97;;;3.10;;
78871;SDS011;68247;43.514;1.502;2023-10-31T01:42:30;5.53;;;3.17;;
78871;SDS011;68247;43.514;1.502;2023-10-31T01:44:55;6.37;;;3.43;;
78871;SDS011;68247;43.514;1.502;2023-10-31T01:47:21;5.43;;;3.42;;
78871;SDS011;68247;43.514;1.502;2023-10-31T01:49:48;5.15;;;3.45;;
78871;SDS011;68247;43.514;1.502;2023-10-31T01:52:14;8.10;;;3.07;;
78871;SDS011;68247;43.514;1.502;2023-10-31T01:54:39;5.47;;;3.20;;
78871;SDS011;68247;43.514;1.502;2023-10-31T01:57:05;7.30;;;3.33;;
78871;SDS011;68247;43.514;1.502;2023-10-31T01:59:30;6.60;;;3.00;;
78871;SDS011;68247;43.514;1.502;2023-10-31T02:01:56;6.07;;;2.90;;
78871;SDS011;68247;43.514;1.502;2023-10-31T02:04:23;8.30;;;3.20;;
78871;SDS011;68247;43.514;1.502;2023-10-31T02:06:49;6.05;;;2.80;;
78871;SDS011;68247;43.514;1.502;2023-10-31T02:09:14;5.40;;;2.70;;
78871;SDS011;68247;43.514;1.502;2023-10-31T02:11:40;5.22;;;2.83;;
78871;SDS011;68247;43.514;1.502;2023-10-31T02:14:05;3.90;;;2.23;;
78871;SDS011;68247;43.514;1.502;2023-10-31T02:16:30;5.30;;;2.40;;
78871;SDS011;68247;43.514;1.502;2023-10-31T02:18:56;5.23;;;2.63;;
78871;SDS011;68247;43.514;1.502;2023-10-31T02:21:21;6.53;;;2.78;;
78871;SDS011;68247;43.514;1.502;2023-10-31T02:23:57;5.70;;;2.30;;
78871;SDS011;68247;43.514;1.502;2023-10-31T02:26:23;5.10;;;2.70;;
78871;SDS011;68247;43.514;1.502;2023-10-31T02:28:48;5.67;;;2.70;;
78871;SDS011;68247;43.514;1.502;2023-10-31T02:31:14;7.77;;;2.60;;
78871;SDS011;68247;43.514;1.502;2023-10-31T02:33:39;5.53;;;2.60;;
78871;SDS011;68247;43.514;1.502;2023-10-31T02:36:05;5.33;;;2.60;;
78871;SDS011;68247;43.514;1.502;2023-10-31T02:38:30;6.93;;;2.20;;
78871;SDS011;68247;43.514;1.502;2023-10-31T02:40:55;5.90;;;2.23;;
78871;SDS011;68247;43.514;1.502;2023-10-31T02:43:21;4.60;;;2.67;;
78871;SDS011;68247;43.514;1.502;2023-10-31T02:45:46;4.40;;;2.30;;
78871;SDS011;68247;43.514;1.502;2023-10-31T02:48:12;3.93;;;1.90;;
78871;SDS011;68247;43.514;1.502;2023-10-31T02:50:37;4.70;;;2.23;;
78871;SDS011;68247;43.514;1.502;2023-10-31T02:53:03;3.90;;;2.20;;
78871;SDS011;68247;43.514;1.502;2023-10-31T02:55:28;6.93;;;2.10;;
78871;SDS011;68247;43.514;1.502;2023-10-31T02:57:53;7.68;;;2.50;;
78871;SDS011;68247;43.514;1.502;2023-10-31T03:00:19;4.60;;;2.30;;
78871;SDS011;68247;43.514;1.502;2023-10-31T03:02:44;6.07;;;2.30;;
78871;SDS011;68247;43.514;1.502;2023-10-31T03:05:10;5.53;;;2.40;;
78871;SDS011;68247;43.514;1.502;2023-10-31T03:07:35;5.93;;;2.00;;
78871;SDS011;68247;43.514;1.502;2023-10-31T03:10:01;7.00;;;2.80;;
78871;SDS011;68247;43.514;1.502;2023-10-31T03:12:26;5.30;;;2.20;;
78871;SDS011;68247;43.514;1.502;2023-10-31T03:14:51;4.83;;;2.50;;
78871;SDS011;68247;43.514;1.502;2023-10-31T03:17:17;4.50;;;2.20;;
78871;SDS011;68247;43.514;1.502;2023-10-31T03:19:42;6.27;;;2.10;;
78871;SDS011;68247;43.514;1.502;2023-10-31T03:22:08;6.77;;;2.20;;
78871;SDS011;68247;43.514;1.502;2023-10-31T03:24:33;5.13;;;2.10;;
78871;SDS011;68247;43.514;1.502;2023-10-31T03:26:59;5.40;;;2.20;;
78871;SDS011;68247;43.514;1.502;2023-10-31T03:29:24;5.17;;;2.40;;
78871;SDS011;68247;43.514;1.502;2023-10-31T03:31:50;5.17;;;2.57;;
78871;SDS011;68247;43.514;1.502;2023-10-31T03:34:15;5.22;;;2.28;;
78871;SDS011;68247;43.514;1.502;2023-10-31T03:36:41;6.90;;;2.53;;
78871;SDS011;68247;43.514;1.502;2023-10-31T03:39:06;3.43;;;2.00;;
78871;SDS011;68247;43.514;1.502;2023-10-31T03:41:32;5.22;;;2.45;;
78871;SDS011;68247;43.514;1.502;2023-10-31T03:43:57;7.30;;;2.40;;
78871;SDS011;68247;43.514;1.502;2023-10-31T03:46:23;5.53;;;2.43;;
78871;SDS011;68247;43.514;1.502;2023-10-31T03:48:48;6.53;;;2.30;;
78871;SDS011;68247;43.514;1.502;2023-10-31T03:51:13;5.03;;;2.10;;
78871;SDS011;68247;43.514;1.502;2023-10-31T03:53:39;6.00;;;2.47;;
78871;SDS011;68247;43.514;1.502;2023-10-31T03:56:04;6.23;;;2.50;;
78871;SDS011;68247;43.514;1.502;2023-10-31T03:58:30;4.10;;;2.40;;
78871;SDS011;68247;43.514;1.502;2023-10-31T04:00:55;5.97;;;2.20;;
78871;SDS011;68247;43.514;1.502;2023-10-31T04:03:21;5.30;;;2.37;;
78871;SDS011;68247;43.514;1.502;2023-10-31T04:05:46;4.30;;;2.30;;
78871;SDS011;68247;43.514;1.502;2023-10-31T04:08:11;6.03;;;2.50;;
78871;SDS011;68247;43.514;1.502;2023-10-31T04:10:37;5.70;;;1.83;;
78871;SDS011;68247;43.514;1.502;2023-10-31T04:13:02;5.63;;;2.20;;
78871;SDS011;68247;43.514;1.502;2023-10-31T04:15:28;9.37;;;2.53;;
78871;SDS011;68247;43.514;1.502;2023-10-31T04:17:53;5.63;;;2.20;;
78871;SDS011;68247;43.514;1.502;2023-10-31T04:20:18;6.50;;;2.10;;
78871;SDS011;68247;43.514;1.502;2023-10-31T04:22:44;5.07;;;2.63;;
78871;SDS011;68247;43.514;1.502;2023-10-31T04:25:09;4.97;;;2.17;;
78871;SDS011;68247;43.514;1.502;2023-10-31T04:27:35;4.50;;;2.00;;
78871;SDS011;68247;43.514;1.502;2023-10-31T04:30:01;6.50;;;2.30;;
78871;SDS011;68247;43.514;1.502;2023-10-31T04:32:26;6.05;;;1.90;;
78871;SDS011;68247;43.514;1.502;2023-10-31T04:34:51;4.73;;;2.17;;
78871;SDS011;68247;43.514;1.502;2023-10-31T04:37:17;3.37;;;1.60;;
78871;SDS011;68247;43.514;1.502;2023-10-31T04:39:42;3.95;;;1.60;;
78871;SDS011;68247;43.514;1.502;2023-10-31T04:42:08;4.67;;;1.50;;
78871;SDS011;68247;43.514;1.502;2023-10-31T04:44:34;3.92;;;1.70;;
78871;SDS011;68247;43.514;1.502;2023-10-31T04:47:00;4.70;;;1.80;;
78871;SDS011;68247;43.514;1.502;2023-10-31T04:49:25;5.80;;;1.70;;
78871;SDS011;68247;43.514;1.502;2023-10-31T04:51:50;4.10;;;1.87;;
78871;SDS011;68247;43.514;1.502;2023-10-31T04:54:16;4.50;;;1.57;;
78871;SDS011;68247;43.514;1.502;2023-10-31T04:56:41;3.63;;;1.60;;
78871;SDS011;68247;43.514;1.502;2023-10-31T04:59:07;3.30;;;1.30;;
78871;SDS011;68247;43.514;1.502;2023-10-31T05:01:32;2.83;;;1.53;;
78871;SDS011;68247;43.514;1.502;2023-10-31T05:03:57;5.20;;;2.07;;
78871;SDS011;68247;43.514;1.502;2023-10-31T05:06:23;3.83;;;1.60;;
78871;SDS011;68247;43.514;1.502;2023-10-31T05:08:48;3.37;;;1.57;;
78871;SDS011;68247;43.514;1.502;2023-10-31T05:11:17;5.03;;;1.80;;
78871;SDS011;68247;43.514;1.502;2023-10-31T05:13:44;3.67;;;1.58;;
78871;SDS011;68247;43.514;1.502;2023-10-31T05:16:09;3.80;;;1.40;;
78871;SDS011;68247;43.514;1.502;2023-10-31T05:18:37;4.20;;;1.70;;
78871;SDS011;68247;43.514;1.502;2023-10-31T05:21:02;3.77;;;1.40;;
78871;SDS011;68247;43.514;1.502;2023-10-31T05:23:28;2.95;;;1.50;;
78871;SDS011;68247;43.514;1.502;2023-10-31T05:25:54;3.80;;;1.47;;
78871;SDS011;68247;43.514;1.502;2023-10-31T05:28:20;3.10;;;1.50;;
78871;SDS011;68247;43.514;1.502;2023-10-31T05:30:46;4.72;;;1.70;;
78871;SDS011;68247;43.514;1.502;2023-10-31T05:33:14;2.77;;;1.20;;
78871;SDS011;68247;43.514;1.502;2023-10-31T05:35:40;4.43;;;1.50;;
78871;SDS011;68247;43.514;1.502;2023-10-31T05:38:05;4.40;;;1.40;;
78871;SDS011;68247;43.514;1.502;2023-10-31T05:40:31;4.23;;;1.40;;
78871;SDS011;68247;43.514;1.502;2023-10-31T05:43:00;4.17;;;1.50;;
78871;SDS011;68247;43.514;1.502;2023-10-31T05:45:25;3.75;;;1.30;;
78871;SDS011;68247;43.514;1.502;2023-10-31T05:47:51;3.00;;;1.30;;
78871;SDS011;68247;43.514;1.502;2023-10-31T05:50:16;3.13;;;1.63;;
78871;SDS011;68247;43.514;1.502;2023-10-31T05:52:42;4.53;;;1.50;;
78871;SDS011;68247;43.514;1.502;2023-10-31T05:55:07;2.95;;;1.20;;
78871;SDS011;68247;43.514;1.502;2023-10-31T05:57:33;3.63;;;0.93;;
78871;SDS011;68247;43.514;1.502;2023-10-31T05:59:58;3.20;;;1.20;;
78871;SDS011;68247;43.514;1.502;2023-10-31T06:02:24;4.20;;;1.50;;
78871;SDS011;68247;43.514;1.502;2023-10-31T06:04:49;3.67;;;1.20;;
78871;SDS011;68247;43.514;1.502;2023-10-31T06:07:14;3.07;;;1.30;;
78871;SDS011;68247;43.514;1.502;2023-10-31T06:09:40;6.13;;;1.23;;
78871;SDS011;68247;43.514;1.502;2023-10-31T06:12:05;7.07;;;1.30;;
78871;SDS011;68247;43.514;1.502;2023-10-31T06:14:31;3.22;;;1.10;;
78871;SDS011;68247;43.514;1.502;2023-10-31T06:16:57;5.57;;;1.20;;
78871;SDS011;68247;43.514;1.502;2023-10-31T06:19:24;3.88;;;1.30;;
78871;SDS011;68247;43.514;1.502;2023-10-31T06:21:49;3.80;;;1.00;;
78871;SDS011;68247;43.514;1.502;2023-10-31T06:24:15;4.10;;;1.30;;
78871;SDS011;68247;43.514;1.502;2023-10-31T06:26:40;4.40;;;1.33;;
78871;SDS011;68247;43.514;1.502;2023-10-31T06:29:06;2.90;;;1.50;;
78871;SDS011;68247;43.514;1.502;2023-10-31T06:31:31;4.37;;;1.23;;
78871;SDS011;68247;43.514;1.502;2023-10-31T06:33:57;2.97;;;1.40;;
78871;SDS011;68247;43.514;1.502;2023-10-31T06:36:22;4.30;;;1.30;;
78871;SDS011;68247;43.514;1.502;2023-10-31T06:38:48;3.90;;;1.13;;
78871;SDS011;68247;43.514;1.502;2023-10-31T06:41:13;2.47;;;1.03;;
78871;SDS011;68247;43.514;1.502;2023-10-31T06:43:39;2.67;;;1.15;;
78871;SDS011;68247;43.514;1.502;2023-10-31T06:46:04;4.93;;;1.50;;
78871;SDS011;68247;43.514;1.502;2023-10-31T06:48:30;2.92;;;1.17;;
78871;SDS011;68247;43.514;1.502;2023-10-31T06:50:55;3.13;;;1.23;;
78871;SDS011;68247;43.514;1.502;2023-10-31T06:53:21;2.47;;;1.17;;
78871;SDS011;68247;43.514;1.502;2023-10-31T06:55:46;5.65;;;1.80;;
78871;SDS011;68247;43.514;1.502;2023-10-31T06:58:12;2.63;;;1.10;;
78871;SDS011;68247;43.514;1.502;2023-10-31T07:00:37;2.93;;;1.20;;
78871;SDS011;68247;43.514;1.502;2023-10-31T07:03:03;2.40;;;1.20;;
78871;SDS011;68247;43.514;1.502;2023-10-31T07:05:34;4.30;;;1.80;;
78871;SDS011;68247;43.514;1.502;2023-10-31T07:07:59;3.03;;;1.00;;
78871;SDS011;68247;43.514;1.502;2023-10-31T07:10:25;4.43;;;1.20;;
78871;SDS011;68247;43.514;1.502;2023-10-31T07:12:50;2.80;;;1.30;;
78871;SDS011;68247;43.514;1.502;2023-10-31T07:15:16;5.30;;;1.40;;
78871;SDS011;68247;43.514;1.502;2023-10-31T07:17:41;4.18;;;1.20;;
78871;SDS011;68247;43.514;1.502;2023-10-31T07:20:06;2.77;;;1.13;;
78871;SDS011;68247;43.514;1.502;2023-10-31T07:22:32;2.60;;;1.03;;
78871;SDS011;68247;43.514;1.502;2023-10-31T07:24:59;3.60;;;1.33;;
78871;SDS011;68247;43.514;1.502;2023-10-31T07:27:27;3.97;;;1.45;;
78871;SDS011;68247;43.514;1.502;2023-10-31T07:29:52;3.83;;;1.47;;
78871;SDS011;68247;43.514;1.502;2023-10-31T07:32:18;2.77;;;1.00;;
78871;SDS011;68247;43.514;1.502;2023-10-31T07:34:43;3.55;;;1.40;;
78871;SDS011;68247;43.514;1.502;2023-10-31T07:37:09;4.93;;;1.17;;
78871;SDS011;68247;43.514;1.502;2023-10-31T07:39:34;3.37;;;1.17;;
78871;SDS011;68247;43.514;1.502;2023-10-31T07:41:59;5.25;;;1.60;;
78871;SDS011;68247;43.514;1.502;2023-10-31T07:44:25;3.57;;;1.30;;
78871;SDS011;68247;43.514;1.502;2023-10-31T07:46:50;4.07;;;1.63;;
78871;SDS011;68247;43.514;1.502;2023-10-31T07:49:16;4.97;;;1.40;;
78871;SDS011;68247;43.514;1.502;2023-10-31T07:51:41;5.57;;;1.40;;
78871;SDS011;68247;43.514;1.502;2023-10-31T07:54:07;5.30;;;1.40;;
78871;SDS011;68247;43.514;1.502;2023-10-31T07:56:34;3.22;;;1.20;;
78871;SDS011;68247;43.514;1.502;2023-10-31T07:59:01;4.68;;;1.50;;
78871;SDS011;68247;43.514;1.502;2023-10-31T08:01:26;3.90;;;1.57;;
78871;SDS011;68247;43.514;1.502;2023-10-31T08:03:53;3.40;;;1.50;;
78871;SDS011;68247;43.514;1.502;2023-10-31T08:06:19;3.67;;;1.80;;
78871;SDS011;68247;43.514;1.502;2023-10-31T08:08:44;5.03;;;1.50;;
78871;SDS011;68247;43.514;1.502;2023-10-31T08:11:10;4.63;;;1.30;;
78871;SDS011;68247;43.514;1.502;2023-10-31T08:13:36;12.05;;;1.52;;
78871;SDS011;68247;43.514;1.502;2023-10-31T08:16:03;4.93;;;1.30;;
78871;SDS011;68247;43.514;1.502;2023-10-31T08:18:31;4.18;;;1.20;;
78871;SDS011;68247;43.514;1.502;2023-10-31T08:20:56;4.23;;;1.20;;
78871;SDS011;68247;43.514;1.502;2023-10-31T08:23:22;4.00;;;1.20;;
78871;SDS011;68247;43.514;1.502;2023-10-31T08:25:47;4.97;;;1.47;;
78871;SDS011;68247;43.514;1.502;2023-10-31T08:28:13;2.60;;;1.00;;
78871;SDS011;68247;43.514;1.502;2023-10-31T08:30:38;3.80;;;1.10;;
78871;SDS011;68247;43.514;1.502;2023-10-31T08:33:04;5.05;;;1.30;;
78871;SDS011;68247;43.514;1.502;2023-10-31T08:35:29;5.67;;;1.37;;
78871;SDS011;68247;43.514;1.502;2023-10-31T08:37:55;6.27;;;1.20;;
78871;SDS011;68247;43.514;1.502;2023-10-31T08:40:20;4.53;;;1.20;;
78871;SDS011;68247;43.514;1.502;2023-10-31T08:42:45;2.70;;;1.20;;
78871;SDS011;68247;43.514;1.502;2023-10-31T08:45:11;3.60;;;1.20;;
78871;SDS011;68247;43.514;1.502;2023-10-31T08:47:36;3.50;;;1.10;;
78871;SDS011;68247;43.514;1.502;2023-10-31T08:50:02;3.83;;;1.30;;
78871;SDS011;68247;43.514;1.502;2023-10-31T08:52:27;3.45;;;1.40;;
78871;SDS011;68247;43.514;1.502;2023-10-31T08:54:53;4.97;;;1.50;;
78871;SDS011;68247;43.514;1.502;2023-10-31T08:57:18;4.53;;;1.50;;
78871;SDS011;68247;43.514;1.502;2023-10-31T08:59:44;5.78;;;1.45;;
78871;SDS011;68247;43.514;1.502;2023-10-31T09:02:09;6.27;;;1.43;;
78871;SDS011;68247;43.514;1.502;2023-10-31T09:04:34;5.13;;;1.50;;
78871;SDS011;68247;43.514;1.502;2023-10-31T09:07:00;5.30;;;1.50;;
78871;SDS011;68247;43.514;1.502;2023-10-31T09:09:26;7.40;;;1.98;;
78871;SDS011;68247;43.514;1.502;2023-10-31T09:11:51;7.40;;;1.80;;
78871;SDS011;68247;43.514;1.502;2023-10-31T09:14:16;7.80;;;1.77;;
78871;SDS011;68247;43.514;1.502;2023-10-31T09:16:42;6.43;;;1.67;;
78871;SDS011;68247;43.514;1.502;2023-10-31T09:19:07;4.13;;;1.90;;
78871;SDS011;68247;43.514;1.502;2023-10-31T09:21:33;6.35;;;1.52;;
78871;SDS011;68247;43.514;1.502;2023-10-31T09:23:58;5.33;;;1.80;;
78871;SDS011;68247;43.514;1.502;2023-10-31T09:26:23;7.60;;;1.93;;
78871;SDS011;68247;43.514;1.502;2023-10-31T09:28:49;5.43;;;2.10;;
78871;SDS011;68247;43.514;1.502;2023-10-31T09:31:18;5.18;;;2.08;;
78871;SDS011;68247;43.514;1.502;2023-10-31T09:33:45;6.10;;;2.45;;
78871;SDS011;68247;43.514;1.502;2023-10-31T09:36:11;5.10;;;2.40;;
78871;SDS011;68247;43.514;1.502;2023-10-31T09:38:37;6.50;;;1.90;;
78871;SDS011;68247;43.514;1.502;2023-10-31T09:41:03;8.13;;;1.77;;
78871;SDS011;68247;43.514;1.502;2023-10-31T09:43:29;7.20;;;1.70;;
78871;SDS011;68247;43.514;1.502;2023-10-31T09:45:55;6.63;;;1.60;;
78871;SDS011;68247;43.514;1.502;2023-10-31T09:48:22;7.43;;;1.67;;
78871;SDS011;68247;43.514;1.502;2023-10-31T09:50:47;6.17;;;1.70;;
78871;SDS011;68247;43.514;1.502;2023-10-31T09:53:14;7.70;;;2.10;;
78871;SDS011;68247;43.514;1.502;2023-10-31T09:55:39;6.30;;;1.65;;
78871;SDS011;68247;43.514;1.502;2023-10-31T09:58:06;6.40;;;1.48;;
78871;SDS011;68247;43.514;1.502;2023-10-31T10:00:31;6.77;;;1.80;;
78871;SDS011;68247;43.514;1.502;2023-10-31T10:02:56;6.63;;;1.80;;
78871;SDS011;68247;43.514;1.502;2023-10-31T10:05:22;4.72;;;1.60;;
78871;SDS011;68247;43.514;1.502;2023-10-31T10:07:48;7.97;;;2.17;;
78871;SDS011;68247;43.514;1.502;2023-10-31T10:10:15;4.28;;;1.50;;
78871;SDS011;68247;43.514;1.502;2023-10-31T10:12:41;5.40;;;1.73;;
78871;SDS011;68247;43.514;1.502;2023-10-31T10:15:07;6.88;;;1.65;;
78871;SDS011;68247;43.514;1.502;2023-10-31T10:17:33;6.43;;;1.90;;
78871;SDS011;68247;43.514;1.502;2023-10-31T10:20:08;8.82;;;1.98;;
78871;SDS011;68247;43.514;1.502;2023-10-31T10:22:42;6.28;;;1.58;;
78871;SDS011;68247;43.514;1.502;2023-10-31T10:25:12;7.93;;;1.63;;
78871;SDS011;68247;43.514;1.502;2023-10-31T10:27:40;7.10;;;1.80;;
78871;SDS011;68247;43.514;1.502;2023-10-31T10:30:12;5.50;;;1.70;;
78871;SDS011;68247;43.514;1.502;2023-10-31T10:32:39;4.97;;;1.80;;
78871;SDS011;68247;43.514;1.502;2023-10-31T10:35:06;7.65;;;2.80;;
78871;SDS011;68247;43.514;1.502;2023-10-31T10:37:31;7.57;;;1.80;;
78871;SDS011;68247;43.514;1.502;2023-10-31T10:39:57;5.65;;;1.38;;
78871;SDS011;68247;43.514;1.502;2023-10-31T10:45:09;6.40;;;1.63;;
78871;SDS011;68247;43.514;1.502;2023-10-31T10:47:36;6.90;;;1.30;;
78871;SDS011;68247;43.514;1.502;2023-10-31T10:50:03;4.45;;;1.52;;
78871;SDS011;68247;43.514;1.502;2023-10-31T10:55:08;5.43;;;1.60;;
78871;SDS011;68247;43.514;1.502;2023-10-31T10:57:38;6.03;;;1.60;;
78871;SDS011;68247;43.514;1.502;2023-10-31T11:00:11;8.52;;;1.85;;
78871;SDS011;68247;43.514;1.502;2023-10-31T11:02:41;6.15;;;1.50;;
78871;SDS011;68247;43.514;1.502;2023-10-31T11:05:07;7.05;;;1.95;;
78871;SDS011;68247;43.514;1.502;2023-10-31T11:07:34;5.93;;;1.53;;
78871;SDS011;68247;43.514;1.502;2023-10-31T11:10:00;5.45;;;1.52;;
78871;SDS011;68247;43.514;1.502;2023-10-31T11:12:29;6.28;;;1.83;;
78871;SDS011;68247;43.514;1.502;2023-10-31T11:14:56;6.82;;;1.80;;
78871;SDS011;68247;43.514;1.502;2023-10-31T11:17:42;6.72;;;1.73;;
78871;SDS011;68247;43.514;1.502;2023-10-31T11:20:12;7.77;;;2.17;;
78871;SDS011;68247;43.514;1.502;2023-10-31T11:22:43;7.32;;;1.60;;
78871;SDS011;68247;43.514;1.502;2023-10-31T11:25:10;5.80;;;1.50;;
78871;SDS011;68247;43.514;1.502;2023-10-31T11:27:39;5.55;;;1.48;;
78871;SDS011;68247;43.514;1.502;2023-10-31T11:30:07;6.68;;;1.80;;
78871;SDS011;68247;43.514;1.502;2023-10-31T11:32:33;7.93;;;1.57;;
78871;SDS011;68247;43.514;1.502;2023-10-31T11:34:59;5.97;;;1.80;;
78871;SDS011;68247;43.514;1.502;2023-10-31T11:37:27;8.27;;;1.67;;
78871;SDS011;68247;43.514;1.502;2023-10-31T11:42:38;7.13;;;1.83;;
78871;SDS011;68247;43.514;1.502;2023-10-31T11:45:03;4.83;;;1.67;;
78871;SDS011;68247;43.514;1.502;2023-10-31T11:47:45;8.52;;;2.00;;
78871;SDS011;68247;43.514;1.502;2023-10-31T11:50:11;6.10;;;1.75;;
78871;SDS011;68247;43.514;1.502;2023-10-31T11:52:37;5.70;;;1.50;;
78871;SDS011;68247;43.514;1.502;2023-10-31T11:55:03;6.93;;;2.00;;
78871;SDS011;68247;43.514;1.502;2023-10-31T11:57:30;7.22;;;1.60;;
78871;SDS011;68247;43.514;1.502;2023-10-31T11:59:56;6.32;;;1.88;;
78871;SDS011;68247;43.514;1.502;2023-10-31T12:02:21;5.40;;;1.73;;
78871;SDS011;68247;43.514;1.502;2023-10-31T12:04:46;6.40;;;1.77;;
78871;SDS011;68247;43.514;1.502;2023-10-31T12:07:12;3.80;;;1.40;;
78871;SDS011;68247;43.514;1.502;2023-10-31T12:09:46;3.70;;;1.40;;
78871;SDS011;68247;43.514;1.502;2023-10-31T12:12:12;5.82;;;1.40;;
78871;SDS011;68247;43.514;1.502;2023-10-31T12:14:38;3.80;;;1.37;;
78871;SDS011;68247;43.514;1.502;2023-10-31T12:17:04;7.40;;;1.60;;
78871;SDS011;68247;43.514;1.502;2023-10-31T12:19:30;6.57;;;1.50;;
78871;SDS011;68247;43.514;1.502;2023-10-31T12:21:55;5.93;;;1.47;;
78871;SDS011;68247;43.514;1.502;2023-10-31T12:24:21;7.78;;;1.60;;
78871;SDS011;68247;43.514;1.502;2023-10-31T12:26:47;5.03;;;1.30;;
78871;SDS011;68247;43.514;1.502;2023-10-31T12:29:14;6.28;;;1.80;;
78871;SDS011;68247;43.514;1.502;2023-10-31T12:31:50;7.00;;;1.58;;
78871;SDS011;68247;43.514;1.502;2023-10-31T12:34:20;4.10;;;1.47;;
78871;SDS011;68247;43.514;1.502;2023-10-31T12:36:47;6.32;;;1.88;;
78871;SDS011;68247;43.514;1.502;2023-10-31T12:39:14;4.97;;;1.75;;
78871;SDS011;68247;43.514;1.502;2023-10-31T12:41:41;5.10;;;1.80;;
78871;SDS011;68247;43.514;1.502;2023-10-31T12:44:07;5.43;;;1.92;;
78871;SDS011;68247;43.514;1.502;2023-10-31T12:46:38;4.10;;;1.50;;
78871;SDS011;68247;43.514;1.502;2023-10-31T12:49:10;5.38;;;1.70;;
78871;SDS011;68247;43.514;1.502;2023-10-31T12:51:37;6.60;;;1.90;;
78871;SDS011;68247;43.514;1.502;2023-10-31T12:54:02;5.03;;;1.47;;
78871;SDS011;68247;43.514;1.502;2023-10-31T12:57:01;6.40;;;1.80;;
78871;SDS011;68247;43.514;1.502;2023-10-31T12:59:23;5.13;;;1.70;;
78871;SDS011;68247;43.514;1.502;2023-10-31T13:01:48;7.27;;;1.90;;
78871;SDS011;68247;43.514;1.502;2023-10-31T13:04:23;5.43;;;1.70;;
78871;SDS011;68247;43.514;1.502;2023-10-31T13:07:05;6.38;;;2.20;;
78871;SDS011;68247;43.514;1.502;2023-10-31T13:09:31;5.20;;;1.70;;
78871;SDS011;68247;43.514;1.502;2023-10-31T13:11:59;4.43;;;1.60;;
78871;SDS011;68247;43.514;1.502;2023-10-31T13:14:25;3.80;;;1.60;;
78871;SDS011;68247;43.514;1.502;2023-10-31T13:16:50;6.33;;;1.80;;
78871;SDS011;68247;43.514;1.502;2023-10-31T13:19:16;5.57;;;1.87;;
78871;SDS011;68247;43.514;1.502;2023-10-31T13:21:42;4.32;;;1.60;;
78871;SDS011;68247;43.514;1.502;2023-10-31T13:24:07;7.47;;;2.07;;
78871;SDS011;68247;43.514;1.502;2023-10-31T13:26:33;5.35;;;2.10;;
78871;SDS011;68247;43.514;1.502;2023-10-31T13:28:58;4.90;;;1.97;;
78871;SDS011;68247;43.514;1.502;2023-10-31T13:31:24;4.50;;;1.80;;
78871;SDS011;68247;43.514;1.502;2023-10-31T13:33:49;6.20;;;1.97;;
78871;SDS011;68247;43.514;1.502;2023-10-31T13:36:15;4.07;;;1.92;;
78871;SDS011;68247;43.514;1.502;2023-10-31T13:38:40;4.63;;;1.80;;
78871;SDS011;68247;43.514;1.502;2023-10-31T13:41:05;5.33;;;1.90;;
78871;SDS011;68247;43.514;1.502;2023-10-31T13:43:31;4.87;;;1.90;;
78871;SDS011;68247;43.514;1.502;2023-10-31T13:45:56;3.80;;;2.17;;
78871;SDS011;68247;43.514;1.502;2023-10-31T13:48:22;4.20;;;1.80;;
78871;SDS011;68247;43.514;1.502;2023-10-31T13:50:47;4.07;;;1.70;;
78871;SDS011;68247;43.514;1.502;2023-10-31T13:53:13;3.57;;;1.70;;
78871;SDS011;68247;43.514;1.502;2023-10-31T13:55:38;5.53;;;2.00;;
78871;SDS011;68247;43.514;1.502;2023-10-31T13:58:03;5.30;;;1.90;;
78871;SDS011;68247;43.514;1.502;2023-10-31T14:00:29;7.03;;;2.17;;
78871;SDS011;68247;43.514;1.502;2023-10-31T14:02:54;5.07;;;2.10;;
78871;SDS011;68247;43.514;1.502;2023-10-31T14:05:20;5.07;;;1.85;;
78871;SDS011;68247;43.514;1.502;2023-10-31T14:07:46;5.13;;;2.10;;
78871;SDS011;68247;43.514;1.502;2023-10-31T14:10:11;5.43;;;1.90;;
78871;SDS011;68247;43.514;1.502;2023-10-31T14:12:37;5.20;;;2.20;;
78871;SDS011;68247;43.514;1.502;2023-10-31T14:15:03;6.53;;;2.07;;
78871;SDS011;68247;43.514;1.502;2023-10-31T14:17:28;5.40;;;1.90;;
78871;SDS011;68247;43.514;1.502;2023-10-31T14:19:54;4.40;;;2.10;;
78871;SDS011;68247;43.514;1.502;2023-10-31T14:22:20;5.63;;;2.00;;
78871;SDS011;68247;43.514;1.502;2023-10-31T14:24:45;4.30;;;1.70;;
78871;SDS011;68247;43.514;1.502;2023-10-31T14:27:11;4.03;;;1.52;;
78871;SDS011;68247;43.514;1.502;2023-10-31T14:29:37;4.67;;;1.90;;
78871;SDS011;68247;43.514;1.502;2023-10-31T14:32:08;5.97;;;2.03;;
78871;SDS011;68247;43.514;1.502;2023-10-31T14:34:34;7.40;;;2.00;;
78871;SDS011;68247;43.514;1.502;2023-10-31T14:37:00;4.97;;;1.70;;
78871;SDS011;68247;43.514;1.502;2023-10-31T14:39:25;6.00;;;1.93;;
78871;SDS011;68247;43.514;1.502;2023-10-31T14:41:50;4.03;;;1.70;;
78871;SDS011;68247;43.514;1.502;2023-10-31T14:44:16;4.50;;;1.67;;
78871;SDS011;68247;43.514;1.502;2023-10-31T14:46:41;4.80;;;1.77;;
78871;SDS011;68247;43.514;1.502;2023-10-31T14:49:07;4.37;;;1.90;;